MUHA/HAV METAR and TAF weather

Enter ICAO airport designator
Station Type Date Time Source
MUHA METAR 2020/01/23 14:55 UTC NOAA

MUHA 231455Z 24003KT 200V280 9000 SCT030 21/14 Q1017


Station Type Date Time Source
MUHA Decoded METAR 2020/01/23 14:55 UTC NOAA

Aeropuerto Jose Marti, Rancho-Boyeros, Habana, Cuba (MUHA) 22-59N 082-24W 75M
Jan 23, 2020 - 09:55 AM EST / 2020.01.23 1455 UTC
Wind: from the WSW (240 degrees) at 3 MPH (3 KT) (direction variable):0
Visibility: 5 mile(s):0
Sky conditions: partly cloudy
Temperature: 69 F (21 C)
Dew Point: 57 F (14 C)
Relative Humidity: 64%
Pressure (altimeter): 30.03 in. Hg (1017 hPa)
ob: MUHA 231455Z 24003KT 200V280 9000 SCT030 21/14 Q1017
cycle: 15

Station Type Date Time Source
MUHA TAF 2020/01/23 12:03 UTC NOAA

TAF MUHA 231100Z 2312/2412 VRB03KT 9000 SCT030
BECMG 2317/2319 02008KT BKN020
BECMG 2404/2406 VRB03KT FEW030

Example: see airport list